Time;durP1;ratioP1;P1;durP2;ratioP2;P2;SDS_P1;SDS_P2;PMS_P1;PMS_P2;Temp;Humidity;BMP_temperature;BMP_pressure;BME280_temperature;BME280_humidity;BME280_pressure;Samples;Min_cycle;Max_cycle;Signal;HPM_P1;HPM_P2
2022/04/05 00:02:10;;;;;;;21.40;17.90;;;;;;;8.51;100.00;100412.75;5005940;28;20470;-63
2022/04/05 00:04:35;;;;;;;18.85;15.30;;;;;;;8.51;100.00;100406.75;5006390;28;20446;-64
2022/04/05 00:07:00;;;;;;;16.63;13.98;;;;;;;8.52;100.00;100414.38;4997640;28;20076;-62
2022/04/05 00:09:26;;;;;;;17.67;14.45;;;;;;;8.53;100.00;100410.03;5002129;28;20097;-61
2022/04/05 00:11:51;;;;;;;16.23;13.65;;;;;;;8.52;100.00;100419.56;5006308;28;20030;-61
2022/04/05 00:14:16;;;;;;;16.15;13.55;;;;;;;8.53;100.00;100410.03;4974761;28;20467;-61
2022/04/05 00:16:42;;;;;;;16.27;13.57;;;;;;;8.47;100.00;100411.34;4986429;28;20054;-61
2022/04/05 00:19:07;;;;;;;17.05;14.98;;;;;;;8.50;100.00;100421.44;5001636;28;20105;-61
2022/04/05 00:21:32;;;;;;;18.10;14.02;;;;;;;8.51;100.00;100417.91;5006205;28;20374;-62
2022/04/05 00:23:57;;;;;;;17.17;15.15;;;;;;;8.49;100.00;100419.81;5006547;28;20033;-61
2022/04/05 00:26:23;;;;;;;18.02;14.07;;;;;;;8.49;100.00;100413.81;4999533;28;20382;-63
2022/04/05 00:28:48;;;;;;;16.83;13.45;;;;;;;8.49;100.00;100424.16;4996970;28;20037;-62
2022/04/05 00:31:13;;;;;;;17.33;13.75;;;;;;;8.49;100.00;100424.16;4992709;28;20029;-61
2022/04/05 00:33:39;;;;;;;17.75;14.38;;;;;;;8.47;100.00;100419.09;4986883;28;20099;-62
2022/04/05 00:36:05;;;;;;;16.33;13.60;;;;;;;8.47;100.00;100424.25;4987078;28;20519;-61
2022/04/05 00:38:30;;;;;;;15.73;14.13;;;;;;;8.48;100.00;100433.66;4988229;28;20037;-63
2022/04/05 00:40:55;;;;;;;17.98;14.88;;;;;;;8.50;100.00;100431.78;4993967;28;20592;-63
2022/04/05 00:43:21;;;;;;;17.92;15.38;;;;;;;8.48;100.00;100425.06;4988097;28;20038;-61
2022/04/05 00:45:46;;;;;;;20.10;15.45;;;;;;;8.51;100.00;100427.44;4990655;28;20023;-62
2022/04/05 00:48:18;;;;;;;17.90;15.70;;;;;;;8.49;100.00;100422.41;4990225;28;20037;-64
2022/04/05 00:50:44;;;;;;;19.58;15.95;;;;;;;8.49;100.00;100424.97;4990917;28;20022;-61
2022/04/05 00:53:09;;;;;;;19.92;15.80;;;;;;;8.49;100.00;100435.31;4990723;28;20431;-63
2022/04/05 00:55:35;;;;;;;21.15;16.83;;;;;;;8.50;100.00;100434.38;4972878;28;20418;-61
2022/04/05 00:58:02;;;;;;;24.90;17.60;;;;;;;8.48;100.00;100433.66;4974533;28;20038;-61
2022/04/05 01:00:28;;;;;;;20.50;16.75;;;;;;;8.49;100.00;100435.31;5009137;28;20033;-61
2022/04/05 01:02:54;;;;;;;24.23;17.60;;;;;;;8.46;100.00;100434.72;4991815;28;20064;-63
2022/04/05 01:05:21;;;;;;;22.83;17.33;;;;;;;8.48;100.00;100433.66;5008175;28;20088;-62
2022/04/05 01:07:48;;;;;;;23.42;17.67;;;;;;;8.44;100.00;100442.59;5008668;28;20034;-61
2022/04/05 01:10:14;;;;;;;22.83;17.67;;;;;;;8.42;100.00;100449.63;4991910;28;20034;-61
2022/04/05 01:12:39;;;;;;;25.52;18.42;;;;;;;8.40;100.00;100446.38;4996582;28;20485;-61
2022/04/05 01:15:05;;;;;;;23.98;17.33;;;;;;;8.41;100.00;100442.84;4973645;28;20054;-62
2022/04/05 01:17:33;;;;;;;25.65;18.52;;;;;;;8.37;100.00;100433.69;4990123;28;20034;-62
2022/04/05 01:19:59;;;;;;;26.15;18.23;;;;;;;8.34;100.00;100439.06;4990442;28;20069;-63
2022/04/05 01:22:25;;;;;;;26.63;18.08;;;;;;;8.34;100.00;100438.25;4989921;28;20034;-61
2022/04/05 01:24:51;;;;;;;27.15;18.45;;;;;;;8.32;100.00;100443.53;4990517;28;20394;-65
2022/04/05 01:27:18;;;;;;;25.08;17.80;;;;;;;8.30;100.00;100450.56;4990936;28;20030;-61
2022/04/05 01:29:44;;;;;;;27.10;17.88;;;;;;;8.30;100.00;100450.56;5008114;28;20065;-61
2022/04/05 01:32:09;;;;;;;24.45;16.58;;;;;;;8.28;100.00;100452.47;4989021;28;20034;-61
2022/04/05 01:34:37;;;;;;;24.48;17.05;;;;;;;8.27;100.00;100457.75;5007217;28;20110;-62
2022/04/05 01:37:05;;;;;;;23.48;15.95;;;;;;;8.26;100.00;100464.69;5009310;28;20073;-61
2022/04/05 01:39:33;;;;;;;22.42;15.38;;;;;;;8.23;100.00;100464.91;4975233;28;20120;-62
2022/04/05 01:42:01;;;;;;;23.23;15.90;;;;;;;8.21;100.00;100462.47;4972096;28;20041;-61
2022/04/05 01:44:29;;;;;;;20.92;15.90;;;;;;;8.22;100.00;100471.03;5007000;28;20307;-62
2022/04/05 01:46:55;;;;;;;22.33;15.77;;;;;;;8.17;100.00;100455.06;5009107;28;20045;-61
2022/04/05 01:49:21;;;;;;;22.55;15.30;;;;;;;8.16;100.00;100458.59;4990872;28;20030;-63
2022/04/05 01:51:46;;;;;;;20.40;15.32;;;;;;;8.08;100.00;100451.41;5003518;28;20077;-61
2022/04/05 01:54:14;;;;;;;11.25;7.95;;;;;;;7.97;100.00;100460.00;5005303;28;20073;-62
2022/04/05 01:56:43;;;;;;;10.00;6.40;;;;;;;7.88;99.44;100455.53;5008701;28;20041;-61
2022/04/05 01:59:09;;;;;;;;;;;;;;;7.96;99.68;100468.66;5003619;28;20033;-62
2022/04/05 02:01:34;;;;;;;7.65;5.57;;;;;;;7.74;99.16;100458.31;4971145;28;19922;-62
2022/04/05 02:03:59;;;;;;;7.63;4.53;;;;;;;7.62;98.48;100459.25;4988853;28;20042;-64
2022/04/05 02:06:25;;;;;;;7.13;4.20;;;;;;;7.52;99.08;100453.97;4989145;28;20042;-62
2022/04/05 02:08:51;;;;;;;6.28;4.28;;;;;;;7.45;98.93;100452.75;5002129;28;20394;-62
2022/04/05 02:11:16;;;;;;;6.88;4.03;;;;;;;7.44;98.65;100451.94;4995012;28;20374;-62
2022/04/05 02:13:42;;;;;;;5.65;3.55;;;;;;;7.40;98.84;100466.03;4988853;28;20042;-61
2022/04/05 02:16:07;;;;;;;5.28;3.10;;;;;;;7.40;99.09;100470.38;5002924;28;20087;-61
2022/04/05 02:18:36;;;;;;;6.03;3.10;;;;;;;7.36;98.72;100468.94;4999506;28;20057;-62
2022/04/05 02:21:01;;;;;;;;;;;;;;;7.45;98.32;100470.81;4971857;28;20030;-61
2022/04/05 02:23:26;;;;;;;6.47;3.38;;;;;;;7.26;98.53;100468.78;4998476;28;19956;-61
2022/04/05 02:25:52;;;;;;;4.97;3.20;;;;;;;7.21;98.01;100470.88;4989452;28;20080;-61
2022/04/05 02:28:17;;;;;;;6.43;3.58;;;;;;;7.16;98.88;100467.81;5000671;28;20029;-61
2022/04/05 02:30:42;;;;;;;5.20;3.53;;;;;;;7.14;98.76;100464.53;4988946;28;20073;-61
2022/04/05 02:33:07;;;;;;;6.88;3.60;;;;;;;7.21;98.93;100473.47;4988557;28;20113;-62
2022/04/05 02:35:33;;;;;;;6.28;3.40;;;;;;;7.18;98.46;100471.94;4988337;28;20034;-60
2022/04/05 02:38:01;;;;;;;5.35;3.50;;;;;;;7.17;98.52;100464.31;4993015;28;20045;-61
2022/04/05 02:40:27;;;;;;;6.03;3.88;;;;;;;7.21;99.06;100470.06;5001049;28;20030;-61
2022/04/05 02:42:53;;;;;;;6.10;3.75;;;;;;;7.18;98.60;100471.94;4988873;28;20026;-61
2022/04/05 02:45:18;;;;;;;6.75;4.25;;;;;;;7.11;99.17;100464.75;4990129;28;20034;-62
2022/04/05 02:47:44;;;;;;;6.25;4.30;;;;;;;7.19;98.91;100472.75;4994430;28;20258;-61
2022/04/05 02:50:10;;;;;;;6.75;4.15;;;;;;;7.17;99.28;100474.63;4988548;28;20466;-61
2022/04/05 02:52:35;;;;;;;7.97;4.43;;;;;;;7.14;99.65;100473.09;4990714;28;20038;-61
2022/04/05 02:55:01;;;;;;;6.57;4.63;;;;;;;7.15;99.34;100461.00;5008172;28;20044;-62
2022/04/05 02:57:26;;;;;;;7.20;4.55;;;;;;;7.15;98.97;100466.19;4998143;28;20456;-64
2022/04/05 02:59:51;;;;;;;7.30;4.78;;;;;;;7.17;99.25;100464.31;4995923;28;20030;-62
2022/04/05 03:02:17;;;;;;;6.72;4.70;;;;;;;7.17;99.46;100464.31;5000032;28;20026;-62
2022/04/05 03:04:42;;;;;;;7.85;4.75;;;;;;;7.18;99.20;100463.38;4970502;28;20447;-61
2022/04/05 03:07:07;;;;;;;6.88;4.78;;;;;;;7.15;99.28;100461.84;4991284;28;20021;-62
2022/04/05 03:09:32;;;;;;;7.43;5.10;;;;;;;7.20;99.26;100458.94;5000260;28;20074;-62
2022/04/05 03:11:58;;;;;;;7.22;5.40;;;;;;;7.21;99.65;100458.00;4979462;28;20042;-61
2022/04/05 03:14:23;;;;;;;8.15;5.93;;;;;;;7.19;99.99;100457.28;4976304;28;20058;-63
2022/04/05 03:16:48;;;;;;;9.13;5.80;;;;;;;7.21;99.94;100460.56;5004041;28;20064;-61
2022/04/05 03:19:14;;;;;;;7.30;5.32;;;;;;;7.23;99.84;100458.72;4987952;28;20105;-61
2022/04/05 03:21:39;;;;;;;8.88;6.03;;;;;;;7.22;98.94;100457.03;4988028;28;20038;-62
2022/04/05 03:24:05;;;;;;;7.53;5.93;;;;;;;7.21;99.55;100465.72;4970648;28;20482;-61
2022/04/05 03:26:30;;;;;;;8.27;6.25;;;;;;;7.21;99.37;100460.56;4987568;28;20477;-63
2022/04/05 03:28:57;;;;;;;9.88;6.55;;;;;;;7.21;98.96;100460.56;4989158;28;20038;-61
2022/04/05 03:31:23;;;;;;;7.97;6.22;;;;;;;7.19;99.08;100462.44;4987457;28;20033;-62
2022/04/05 03:33:48;;;;;;;8.60;6.43;;;;;;;7.21;99.11;100460.56;4987660;28;20035;-62
2022/04/05 03:36:14;;;;;;;8.98;6.40;;;;;;;7.23;99.42;100458.72;4997659;28;20061;-61
2022/04/05 03:38:39;;;;;;;9.35;6.85;;;;;;;7.22;99.50;100456.22;4991674;28;20034;-61
2022/04/05 03:41:05;;;;;;;8.02;6.22;;;;;;;7.23;98.94;100458.72;4987203;28;20053;-61
2022/04/05 03:43:30;;;;;;;9.43;6.95;;;;;;;7.24;99.34;100459.53;4969753;28;20030;-66
2022/04/05 03:45:55;;;;;;;9.60;7.30;;;;;;;7.25;99.40;100450.84;4991327;28;20116;-61
2022/04/05 03:48:21;;;;;;;9.57;7.32;;;;;;;7.21;99.87;100449.44;4986953;28;20030;-62
2022/04/05 03:50:46;;;;;;;10.88;8.38;;;;;;;7.27;99.65;100449.78;4978145;28;20032;-61
2022/04/05 03:53:12;;;;;;;11.50;8.98;;;;;;;7.24;99.95;100455.19;4995590;28;20463;-62
2022/04/05 03:55:37;;;;;;;13.15;9.57;;;;;;;7.25;99.18;100449.09;5005963;28;20494;-61
2022/04/05 03:58:03;;;;;;;18.00;12.35;;;;;;;7.26;99.89;100448.16;4987984;28;20114;-61
2022/04/05 04:00:29;;;;;;;18.17;13.82;;;;;;;7.34;100.00;100445.00;4982990;28;20080;-61
2022/04/05 04:02:54;;;;;;;17.83;15.93;;;;;;;7.38;100.00;100452.41;4998915;28;20430;-62
2022/04/05 04:05:20;;;;;;;20.98;18.67;;;;;;;7.50;100.00;100442.09;4997548;28;20548;-61
2022/04/05 04:07:49;;;;;;;21.17;18.98;;;;;;;7.49;100.00;100437.88;4997348;28;20033;-61
2022/04/05 04:10:15;;;;;;;22.20;19.63;;;;;;;7.55;100.00;100442.59;4987310;28;20203;-61
2022/04/05 04:12:41;;;;;;;23.45;20.95;;;;;;;7.59;100.00;100431.09;4995291;28;20036;-63
2022/04/05 04:15:07;;;;;;;23.10;20.58;;;;;;;7.60;100.00;100435.31;4992990;28;20054;-62
2022/04/05 04:17:33;;;;;;;23.08;20.63;;;;;;;7.63;100.00;100435.13;4985316;28;20085;-61
2022/04/05 04:19:58;;;;;;;23.80;19.95;;;;;;;7.63;100.00;100429.94;5001694;28;20026;-63
2022/04/05 04:22:23;;;;;;;23.77;21.23;;;;;;;7.69;100.00;100434.66;4986148;28;20040;-61
2022/04/05 04:24:49;;;;;;;24.75;20.92;;;;;;;7.70;100.00;100423.38;4987211;28;20391;-61
2022/04/05 04:27:14;;;;;;;24.50;20.80;;;;;;;7.71;100.00;100427.59;4987081;28;20430;-61
2022/04/05 04:29:40;;;;;;;24.52;21.85;;;;;;;7.72;100.00;100426.66;4999284;28;20025;-62
2022/04/05 04:32:06;;;;;;;24.33;21.80;;;;;;;7.72;100.00;100429.22;4999104;28;20112;-63
2022/04/05 04:34:31;;;;;;;25.55;22.85;;;;;;;7.76;100.00;100430.66;4989903;28;20030;-61
2022/04/05 04:36:57;;;;;;;27.52;24.63;;;;;;;7.73;100.00;100423.13;5005026;28;20033;-62
2022/04/05 04:39:23;;;;;;;28.33;25.20;;;;;;;7.78;100.00;100428.75;5005712;28;20075;-61
2022/04/05 04:41:49;;;;;;;29.17;26.10;;;;;;;7.78;100.00;100431.34;4981388;28;20084;-61
2022/04/05 04:44:14;;;;;;;29.33;26.30;;;;;;;7.80;100.00;100429.50;5006061;28;20037;-61
2022/04/05 04:46:39;;;;;;;31.63;27.65;;;;;;;7.80;100.00;100426.91;5006340;28;20116;-62
2022/04/05 04:49:05;;;;;;;33.47;28.23;;;;;;;7.79;100.00;100420.06;5006331;28;20752;-63
2022/04/05 04:51:31;;;;;;;31.65;28.27;;;;;;;7.74;100.00;100419.59;4995032;28;20459;-63
2022/04/05 04:53:56;;;;;;;32.50;29.02;;;;;;;7.81;100.00;100428.53;4968930;28;20121;-63
2022/04/05 04:56:21;;;;;;;30.90;27.65;;;;;;;7.80;100.00;100432.06;4986806;28;20539;-62
2022/04/05 04:58:47;;;;;;;32.60;28.92;;;;;;;7.83;100.00;100431.81;4992611;28;20030;-60
2022/04/05 05:01:12;;;;;;;30.10;27.00;;;;;;;7.83;100.00;100426.66;4991630;28;20052;-61
2022/04/05 05:03:37;;;;;;;29.60;26.45;;;;;;;7.84;100.00;100424.91;4986838;28;20032;-61
2022/04/05 05:06:04;;;;;;;29.10;26.13;;;;;;;7.80;100.00;100421.75;4986356;28;20110;-62
2022/04/05 05:08:30;;;;;;;29.98;26.88;;;;;;;7.84;100.00;100428.28;4987113;28;20030;-61
2022/04/05 05:10:56;;;;;;;29.75;26.63;;;;;;;7.85;100.00;100419.59;4993110;28;20030;-63
2022/04/05 05:13:21;;;;;;;30.42;27.08;;;;;;;7.86;100.00;100436.75;5005997;28;20500;-62
2022/04/05 05:15:47;;;;;;;30.35;27.10;;;;;;;7.88;100.00;100437.47;4995538;28;20065;-65
2022/04/05 05:18:12;;;;;;;31.25;27.88;;;;;;;7.89;100.00;100425.38;4986731;28;20033;-61
2022/04/05 05:20:38;;;;;;;30.95;27.63;;;;;;;7.92;100.00;100436.28;4993091;28;20026;-62
2022/04/05 05:23:04;;;;;;;31.63;28.33;;;;;;;7.89;100.00;100431.34;5005839;28;20029;-62
2022/04/05 05:25:29;;;;;;;32.67;29.20;;;;;;;7.89;100.00;100428.75;4986479;28;20038;-62
2022/04/05 05:27:55;;;;;;;33.58;29.98;;;;;;;7.92;100.00;100446.63;4986599;28;20057;-65
2022/04/05 05:30:22;;;;;;;34.72;31.02;;;;;;;7.93;100.00;100440.50;5005303;28;20073;-61
2022/04/05 05:32:49;;;;;;;35.13;30.55;;;;;;;7.90;100.00;100443.31;4998306;28;20461;-66
2022/04/05 05:35:15;;;;;;;34.28;30.42;;;;;;;7.96;100.00;100448.00;4989391;28;20026;-60
2022/04/05 05:37:41;;;;;;;33.88;30.38;;;;;;;7.93;100.00;100437.94;4989765;28;20030;-62
2022/04/05 05:40:07;;;;;;;33.17;29.80;;;;;;;8.01;100.00;100441.69;5005111;28;20034;-66
2022/04/05 05:42:33;;;;;;;32.35;28.95;;;;;;;7.99;100.00;100445.22;4989726;28;20030;-64
2022/04/05 05:44:59;;;;;;;32.80;29.33;;;;;;;8.02;100.00;100451.06;4991258;28;20037;-65
2022/04/05 05:47:24;;;;;;;33.28;28.50;;;;;;;7.98;100.00;100446.16;5000294;28;20029;-62
2022/04/05 05:49:49;;;;;;;31.15;27.98;;;;;;;8.04;100.00;100451.78;4999048;28;20026;-62
2022/04/05 05:52:15;;;;;;;31.20;27.67;;;;;;;8.05;100.00;100450.84;5000337;28;20037;-67
2022/04/05 05:54:40;;;;;;;33.28;28.27;;;;;;;8.06;100.00;100457.66;5000115;28;20815;-61
2022/04/05 05:57:06;;;;;;;31.00;27.65;;;;;;;8.09;100.00;100457.44;4980301;28;20041;-63
2022/04/05 05:59:31;;;;;;;29.30;26.30;;;;;;;8.09;100.00;100457.44;4979428;28;20390;-67
2022/04/05 06:01:56;;;;;;;31.27;26.60;;;;;;;8.10;100.00;100453.91;4997449;28;20026;-65
2022/04/05 06:04:22;;;;;;;28.23;25.25;;;;;;;8.11;100.00;100460.69;4997552;28;20466;-63
2022/04/05 06:06:47;;;;;;;28.77;25.25;;;;;;;8.11;100.00;100455.53;4996686;28;20030;-66
2022/04/05 06:09:12;;;;;;;28.45;25.38;;;;;;;8.13;100.00;100458.81;4979278;28;20386;-62
2022/04/05 06:11:38;;;;;;;27.60;24.60;;;;;;;8.14;100.00;100460.44;5000143;28;20022;-61
2022/04/05 06:14:04;;;;;;;26.92;24.02;;;;;;;8.16;100.00;100466.34;4999897;28;20104;-63
2022/04/05 06:16:29;;;;;;;27.17;24.23;;;;;;;8.18;100.00;100467.03;5008422;28;20058;-63
2022/04/05 06:18:54;;;;;;;29.90;24.40;;;;;;;8.18;100.00;100467.84;5003118;28;20041;-61
2022/04/05 06:21:20;;;;;;;28.23;24.35;;;;;;;8.18;100.00;100472.19;4993933;28;20033;-63
2022/04/05 06:23:45;;;;;;;26.83;23.77;;;;;;;8.15;100.00;100464.69;4989169;28;20041;-61
2022/04/05 06:26:11;;;;;;;25.77;22.98;;;;;;;8.20;100.00;100480.63;5007446;28;20564;-61
2022/04/05 06:28:37;;;;;;;29.67;23.77;;;;;;;8.20;100.00;100476.31;5008625;28;20033;-65
2022/04/05 06:31:02;;;;;;;26.77;23.77;;;;;;;8.21;100.00;100482.31;5008834;28;20471;-63
2022/04/05 06:33:28;;;;;;;27.98;22.92;;;;;;;8.24;100.00;100479.47;5007613;28;20033;-63
2022/04/05 06:35:58;;;;;;;25.92;23.13;;;;;;;8.17;100.00;100478.31;4993650;28;20042;-62
2022/04/05 06:38:25;;;;;;;26.80;23.85;;;;;;;8.21;100.00;100479.72;4991595;28;20553;-62
2022/04/05 06:40:52;;;;;;;24.80;22.10;;;;;;;8.22;100.00;100489.13;5006396;28;20034;-66
2022/04/05 06:43:25;;;;;;;26.05;22.17;;;;;;;8.21;100.00;100483.13;5006983;28;20141;-64
2022/04/05 06:45:51;;;;;;;26.98;21.92;;;;;;;8.20;100.00;100481.50;4996976;28;20478;-62
2022/04/05 06:48:17;;;;;;;25.13;20.25;;;;;;;8.19;100.00;100487.56;4997072;28;20034;-62
2022/04/05 06:50:42;;;;;;;23.70;19.38;;;;;;;8.21;100.00;100488.28;4995812;28;20072;-64
2022/04/05 06:53:09;;;;;;;25.83;19.17;;;;;;;8.19;100.00;100484.16;4996315;28;20495;-62
2022/04/05 06:55:36;;;;;;;22.45;18.23;;;;;;;8.25;100.00;100494.03;5007985;28;20088;-63
2022/04/05 06:58:02;;;;;;;25.20;17.80;;;;;;;8.26;100.00;100493.13;5004075;28;20033;-64
2022/04/05 07:00:27;;;;;;;23.33;17.08;;;;;;;8.29;100.00;100492.03;5002906;28;20362;-64
2022/04/05 07:02:54;;;;;;;21.33;17.10;;;;;;;8.29;100.00;100500.59;4998040;28;20064;-65
2022/04/05 07:05:20;;;;;;;21.38;15.80;;;;;;;8.31;100.00;100498.72;4988078;28;20077;-63
2022/04/05 07:07:46;;;;;;;21.63;16.05;;;;;;;8.33;100.00;100498.63;4988715;28;20578;-62
2022/04/05 07:10:17;;;;;;;19.50;16.55;;;;;;;8.34;100.00;100493.31;4994497;28;20022;-65
2022/04/05 07:12:43;;;;;;;20.55;15.85;;;;;;;8.37;100.00;100503.47;4999753;28;20022;-63
2022/04/05 07:15:10;;;;;;;18.48;15.85;;;;;;;8.37;100.00;100493.13;5003371;28;20042;-62
2022/04/05 07:17:36;;;;;;;21.98;16.90;;;;;;;8.43;100.00;100502.16;4987303;28;20050;-62
2022/04/05 07:20:02;;;;;;;21.90;16.15;;;;;;;8.42;100.00;100498.75;4996757;28;20035;-62
2022/04/05 07:22:28;;;;;;;22.77;15.73;;;;;;;8.42;100.00;100501.31;4978202;28;20390;-61
2022/04/05 07:24:53;;;;;;;18.40;14.82;;;;;;;8.43;100.00;100500.41;4997575;28;20022;-65
2022/04/05 07:27:18;;;;;;;18.83;15.15;;;;;;;8.48;100.00;100500.84;4997267;28;20026;-65
2022/04/05 07:29:43;;;;;;;18.95;14.32;;;;;;;8.48;100.00;100495.69;4995706;28;20486;-62
2022/04/05 07:32:09;;;;;;;18.98;13.70;;;;;;;8.44;100.00;100489.13;4997044;28;20030;-62
2022/04/05 07:34:34;;;;;;;16.77;13.48;;;;;;;8.52;100.00;100499.69;4995321;28;20018;-67
2022/04/05 07:37:00;;;;;;;19.40;13.90;;;;;;;8.56;100.00;100502.84;4997829;28;20130;-62
2022/04/05 07:39:26;;;;;;;19.77;14.00;;;;;;;8.52;100.00;100491.91;4993142;28;20025;-65
2022/04/05 07:41:52;;;;;;;18.52;13.48;;;;;;;8.57;100.00;100498.50;4998846;28;20137;-67
2022/04/05 07:44:18;;;;;;;19.33;14.20;;;;;;;8.59;100.00;100486.28;4998367;28;20033;-68
2022/04/05 07:46:44;;;;;;;17.13;13.65;;;;;;;8.63;100.00;100498.03;4995467;28;20030;-61
2022/04/05 07:49:10;;;;;;;17.60;13.18;;;;;;;8.63;100.00;100493.66;4987283;28;20027;-66
2022/04/05 07:51:35;;;;;;;16.50;12.45;;;;;;;8.61;100.00;100499.91;4987488;28;20033;-62
2022/04/05 07:54:00;;;;;;;16.73;12.40;;;;;;;8.64;100.00;100513.41;4987529;28;20061;-62
2022/04/05 07:56:26;;;;;;;17.40;12.63;;;;;;;8.62;100.00;100506.72;4990883;28;20030;-66
2022/04/05 07:58:51;;;;;;;18.85;12.70;;;;;;;8.64;100.00;100504.81;4992817;28;20056;-64
2022/04/05 08:01:16;;;;;;;14.13;11.52;;;;;;;8.64;100.00;100515.16;4997328;28;20196;-62
2022/04/05 08:03:42;;;;;;;15.80;12.05;;;;;;;8.61;100.00;100507.66;4980231;28;20021;-69
2022/04/05 08:06:08;;;;;;;16.45;11.80;;;;;;;8.66;100.00;100516.72;4999433;28;20036;-63
2022/04/05 08:08:33;;;;;;;15.15;12.00;;;;;;;8.67;100.00;100509.78;4997782;28;20029;-61
2022/04/05 08:10:59;;;;;;;15.52;11.40;;;;;;;8.66;100.00;100508.94;5000572;28;20018;-63
2022/04/05 08:13:28;;;;;;;17.73;11.63;;;;;;;8.75;100.00;100513.38;4997152;28;20033;-64
2022/04/05 08:15:53;;;;;;;;;;;;;;;8.83;100.00;100515.38;4999434;28;20049;-62
2022/04/05 08:18:19;;;;;;;13.90;11.13;;;;;;;8.80;100.00;100510.44;4997380;28;19920;-62
2022/04/05 08:20:45;;;;;;;17.25;12.48;;;;;;;8.78;100.00;100502.00;4995130;28;20068;-65
2022/04/05 08:23:11;;;;;;;16.30;13.30;;;;;;;8.81;100.00;100509.50;4990049;28;20057;-62
2022/04/05 08:25:36;;;;;;;18.08;13.23;;;;;;;8.84;100.00;100516.19;4988733;28;20053;-66
2022/04/05 08:28:03;;;;;;;17.85;13.15;;;;;;;8.84;100.00;100519.59;4986662;28;20044;-62
2022/04/05 08:30:29;;;;;;;16.27;11.95;;;;;;;8.83;100.00;100524.88;4995580;28;20414;-64
2022/04/05 08:32:54;;;;;;;16.02;12.18;;;;;;;8.82;100.00;100524.06;4996322;28;20477;-62
2022/04/05 08:35:22;;;;;;;15.20;12.02;;;;;;;8.78;100.00;100522.69;4995464;28;20351;-66
2022/04/05 08:37:49;;;;;;;17.85;12.48;;;;;;;8.82;100.00;100518.06;4995610;28;20026;-65
2022/04/05 08:40:16;;;;;;;15.82;11.85;;;;;;;8.85;100.00;100531.59;4987994;28;20073;-62
2022/04/05 08:42:45;;;;;;;18.33;11.90;;;;;;;8.86;100.00;100524.66;4986356;28;20109;-65
2022/04/05 08:45:13;;;;;;;17.15;11.20;;;;;;;8.86;100.00;100530.63;4986404;28;20035;-63
2022/04/05 08:47:53;;;;;;;16.65;11.43;;;;;;;8.85;100.00;100536.75;4986994;28;20038;-63
2022/04/05 08:50:24;;;;;;;15.05;11.63;;;;;;;8.87;100.00;100532.28;4998494;28;20092;-63
2022/04/05 08:52:50;;;;;;;18.27;11.57;;;;;;;8.85;100.00;100534.19;4989883;28;20030;-63
2022/04/05 08:55:17;;;;;;;16.35;12.32;;;;;;;8.85;100.00;100526.41;5003331;28;20482;-61
2022/04/05 08:57:43;;;;;;;18.08;11.75;;;;;;;8.83;100.00;100535.22;4991683;28;20037;-62
2022/04/05 09:00:10;;;;;;;17.83;12.50;;;;;;;8.84;100.00;100537.72;4991688;28;20086;-65
2022/04/05 09:02:36;;;;;;;15.38;12.93;;;;;;;8.85;100.00;100526.41;4986421;28;20045;-62
2022/04/05 09:05:02;;;;;;;16.00;12.55;;;;;;;8.86;100.00;100530.63;4988039;28;20034;-62
2022/04/05 09:07:33;;;;;;;17.55;13.60;;;;;;;8.86;100.00;100538.41;4990657;28;20034;-62
2022/04/05 09:10:13;;;;;;;17.95;13.80;;;;;;;8.88;100.00;100533.91;5006455;28;20026;-63
2022/04/05 09:12:49;;;;;;;17.42;15.00;;;;;;;8.89;100.00;100535.59;5006155;28;20061;-64
2022/04/05 09:15:20;;;;;;;17.05;15.35;;;;;;;8.88;100.00;100533.91;4992271;28;20042;-63
2022/04/05 09:17:47;;;;;;;19.73;16.10;;;;;;;8.90;100.00;100537.22;5001457;28;20169;-62
2022/04/05 09:20:13;;;;;;;19.27;16.48;;;;;;;8.89;100.00;100535.59;4998170;28;20096;-65
2022/04/05 09:22:39;;;;;;;19.27;16.02;;;;;;;8.91;100.00;100533.69;4991149;28;20052;-64
2022/04/05 09:25:10;;;;;;;16.20;14.43;;;;;;;8.88;100.00;100544.25;4990669;28;20030;-62
2022/04/05 09:27:57;;;;;;;16.23;14.13;;;;;;;8.93;100.00;100542.13;4972230;28;20042;-63
2022/04/05 09:30:23;;;;;;;16.83;13.90;;;;;;;8.94;100.00;100548.13;5002182;28;20034;-61
2022/04/05 09:32:51;;;;;;;19.45;14.25;;;;;;;8.95;100.00;100544.63;4991303;28;20144;-61
2022/04/05 09:35:21;;;;;;;17.77;14.10;;;;;;;8.96;100.00;100546.25;4972880;28;20029;-61
2022/04/05 09:37:47;;;;;;;18.58;14.77;;;;;;;8.99;100.00;100546.81;4972821;28;20062;-63
2022/04/05 09:40:24;;;;;;;21.00;15.30;;;;;;;9.05;100.00;100548.91;5008098;28;20076;-68
2022/04/05 09:43:07;;;;;;;20.10;16.08;;;;;;;9.13;100.00;100552.69;4972892;28;20093;-64
2022/04/05 09:45:57;;;;;;;19.20;15.85;;;;;;;9.16;100.00;100547.25;4994609;28;20397;-65
2022/04/05 09:48:29;;;;;;;17.65;15.63;;;;;;;9.20;100.00;100553.81;5008844;28;20441;-65
2022/04/05 09:51:00;;;;;;;19.85;16.00;;;;;;;9.19;100.00;100541.84;5005905;28;20053;-62
2022/04/05 09:53:28;;;;;;;18.70;15.55;;;;;;;9.20;100.00;100554.66;4990053;28;20481;-63
2022/04/05 09:56:09;;;;;;;16.20;14.50;;;;;;;9.21;100.00;100555.47;4990253;28;20114;-62
2022/04/05 09:58:35;;;;;;;15.57;13.25;;;;;;;9.20;100.00;100562.41;4991652;28;20029;-62
2022/04/05 10:01:07;;;;;;;15.15;13.23;;;;;;;9.18;100.00;100560.91;5005501;28;20113;-61
2022/04/05 10:03:36;;;;;;;17.80;13.05;;;;;;;9.18;100.00;100560.91;4990134;28;20030;-62
2022/04/05 10:06:03;;;;;;;15.65;12.95;;;;;;;9.22;100.00;100562.28;5002983;28;20041;-63
2022/04/05 10:08:31;;;;;;;15.85;14.07;;;;;;;9.24;100.00;100555.22;5005011;28;20034;-62
2022/04/05 10:10:56;;;;;;;15.43;12.82;;;;;;;9.24;100.00;100563.00;4991633;28;20076;-66
2022/04/05 10:13:22;;;;;;;14.40;12.88;;;;;;;9.27;100.00;100554.97;5002797;28;20458;-62
2022/04/05 10:15:48;;;;;;;16.13;13.35;;;;;;;9.27;100.00;100560.16;4999141;28;20061;-69
2022/04/05 10:18:19;;;;;;;14.82;13.30;;;;;;;9.25;100.00;100557.69;5008576;28;20038;-65
2022/04/05 10:20:47;;;;;;;14.85;13.20;;;;;;;9.32;100.00;100558.00;5004625;28;20116;-64
2022/04/05 10:23:18;;;;;;;15.68;13.40;;;;;;;9.35;100.00;100562.97;4991461;28;20030;-62
2022/04/05 10:25:44;;;;;;;15.50;13.88;;;;;;;9.31;100.00;100559.78;4991619;28;20121;-68
2022/04/05 10:28:09;;;;;;;16.20;14.43;;;;;;;9.34;100.00;100563.88;5006474;28;20083;-64
2022/04/05 10:30:43;;;;;;;17.52;15.65;;;;;;;9.35;100.00;100562.09;4993971;28;20104;-63
2022/04/05 10:33:14;;;;;;;17.30;15.50;;;;;;;9.35;100.00;100568.13;5008482;28;20037;-62
2022/04/05 10:35:52;;;;;;;17.25;14.90;;;;;;;9.37;100.00;100571.41;5002479;28;20088;-64
2022/04/05 10:38:18;;;;;;;16.63;14.88;;;;;;;9.30;100.00;100560.72;5000147;28;20033;-62
2022/04/05 10:41:20;;;;;;;17.33;15.63;;;;;;;9.31;100.00;100562.38;4997894;28;20034;-64
2022/04/05 10:44:22;;;;;;;17.27;15.38;;;;;;;9.33;100.00;100575.19;4978569;28;20129;-66
2022/04/05 10:46:59;;;;;;;16.20;14.65;;;;;;;9.31;100.00;100561.56;4998636;28;20030;-64
2022/04/05 10:49:39;;;;;;;17.77;15.98;;;;;;;9.30;100.00;100560.72;4980272;28;20184;-62
2022/04/05 10:52:15;;;;;;;18.40;16.40;;;;;;;9.27;100.00;100567.91;4989063;28;20122;-62
2022/04/05 10:54:47;;;;;;;17.55;15.65;;;;;;;9.27;100.00;100560.97;4988197;28;20784;-65
2022/04/05 10:57:17;;;;;;;18.70;16.73;;;;;;;9.28;100.00;100566.97;4992963;28;20038;-63
2022/04/05 10:59:50;;;;;;;18.48;16.67;;;;;;;9.30;100.00;100565.09;4997032;28;20097;-62
2022/04/05 11:02:47;;;;;;;17.77;15.50;;;;;;;9.31;100.00;100571.91;4999601;28;20029;-63
2022/04/05 11:05:18;;;;;;;16.97;15.13;;;;;;;9.30;100.00;100559.91;4976845;28;20068;-63
2022/04/05 11:07:59;;;;;;;16.08;14.38;;;;;;;9.33;100.00;100564.84;4992815;28;20453;-63
2022/04/05 11:10:48;;;;;;;15.57;13.88;;;;;;;9.34;100.00;100561.28;4996298;28;20072;-64
2022/04/05 11:13:29;;;;;;;16.58;13.93;;;;;;;9.34;100.00;100566.47;4994332;28;20121;-62
2022/04/05 11:15:56;;;;;;;17.27;13.23;;;;;;;9.39;100.00;100569.50;4970596;28;20397;-63